Norwegian Star — C6FR3 — position and weather

sailwx.info

Track history (hours):
 
Tides and Currents Weather Stations Pressure Air Temp Water Temp Dewpoint Dewpoint Depression Visibility Wind Speed Wind Dir Waves Ship Positions

Norwegian Star

Operator: Norwegian Cruise Line

Last reported at 2016-Aug-30 12:28 UTC. Time now 2016-Aug-30 13:12 UTC.
Position N 59°27' E 024°46'.

Type: Passenger vessel. MMSI: 311082000.

Date/timePositionNaut miles runAvg speedWind from/ knotsBaromVisibWave heightAir tempDewpointWater temp
2016-Aug-30 12:28N 59°27' E 024°46'0 0.0
2016-Aug-30 11:28N 59°27' E 024°46'0 0.0
2016-Aug-30 10:28N 59°27' E 024°46'0 0.0
2016-Aug-30 09:22N 59°27' E 024°46'0 0.0
2016-Aug-30 08:22N 59°27' E 024°46'0 0.1
2016-Aug-30 07:28N 59°27' E 024°46'0 0.0
2016-Aug-30 06:28N 59°27' E 024°46'0 0.0
2016-Aug-30 05:29N 59°27' E 024°46'7 7.4
2016-Aug-30 04:33N 59°30' E 024°34'3215.6
2016-Aug-30 02:31N 59°25' E 023°32'34316.4
2016-Aug-29 05:34N 55°38' E 015°33'5 9.4
2016-Aug-29 05:00N 55°36' E 015°24'1329.6 250 / 221006.010.8 1.018.618.018.0
2016-Aug-29 04:33N 55°29' E 015°05'1817.9
2016-Aug-29 03:33N 55°22' E 014°36'1817.9
2016-Aug-29 02:34N 55°08' E 014°16'1717.2
2016-Aug-29 01:33N 54°59' E 013°51'1818.0
2016-Aug-29 00:34N 54°53' E 013°21'1817.7
2016-Aug-28 23:34N 54°47' E 012°52'1817.1
2016-Aug-28 22:32N 54°39' E 012°25'1616.0
2016-Aug-28 21:34N 54°26' E 012°11'1413.8
2016-Aug-28 20:33N 54°12' E 012°05'4 3.4
2016-Aug-28 19:28N 54°09' E 012°06'0 0.0
2016-Aug-28 18:28N 54°09' E 012°06'0 0.0
2016-Aug-28 17:28N 54°09' E 012°06'0 0.0
2016-Aug-28 16:28N 54°09' E 012°06'0 0.0
2016-Aug-28 15:31N 54°09' E 012°06'0 0.0
2016-Aug-28 14:28N 54°09' E 012°06'0 0.0
2016-Aug-28 13:31N 54°09' E 012°06'0 0.0
2016-Aug-28 12:31N 54°09' E 012°06'0 0.0
2016-Aug-28 11:31N 54°09' E 012°06'0 0.0
2016-Aug-28 10:31N 54°09' E 012°06'0 0.0
2016-Aug-28 09:31N 54°09' E 012°06'0 0.0
2016-Aug-28 08:31N 54°09' E 012°06'0 0.0
2016-Aug-28 07:10N 54°09' E 012°06'0 0.0
2016-Aug-28 06:28N 54°09' E 012°06'0 0.0
2016-Aug-28 05:31N 54°09' E 012°06'0 0.0
2016-Aug-28 04:33N 54°09' E 012°06'6 6.3
2016-Aug-28 03:33N 54°15' E 012°02'1515.5
2016-Aug-28 02:33N 54°24' E 011°41'1616.3
2016-Aug-28 01:34N 54°33' E 011°18'1615.8
2016-Aug-28 00:33N 54°41' E 010°54'1717.4
2016-Aug-27 23:34N 54°58' E 010°59'1918.5
2016-Aug-27 22:33N 55°16' E 011°04'1918.9
2016-Aug-27 21:33N 55°34' E 010°50'1818.1
2016-Aug-27 20:33N 55°52' E 010°51'1919.1
2016-Aug-27 19:33N 56°07' E 011°12'2019.6
2016-Aug-27 18:33N 56°07' E 011°47'2019.6
2016-Aug-27 17:34N 56°11' E 012°21'1616.4
2016-Aug-27 16:33N 55°60' E 012°41'1413.9
2016-Aug-27 15:33N 55°46' E 012°42'4 3.8
2016-Aug-27 14:32N 55°43' E 012°37'0 0.0
2016-Aug-27 13:32N 55°43' E 012°37'0 0.0
2016-Aug-27 12:32N 55°43' E 012°37'0 0.0
2016-Aug-27 11:32N 55°43' E 012°37'0 0.0
2016-Aug-27 10:32N 55°43' E 012°37'0 0.0
2016-Aug-27 09:32N 55°43' E 012°37'0 0.0
2016-Aug-27 08:32N 55°43' E 012°37'0 0.0
2016-Aug-27 07:32N 55°43' E 012°37'0 0.0
2016-Aug-27 06:32N 55°43' E 012°37'0 0.0
2016-Aug-27 04:32N 55°43' E 012°37'6 5.8
2016-Aug-27 03:34N 55°48' E 012°43'1716.6
2016-Aug-27 02:34N 56°04' E 012°38'1918.9
2016-Aug-27 01:34N 56°11' E 012°06'2219.4
2016-Aug-27 00:26N 56°07' E 011°28'1617.9
2016-Aug-26 23:33N 55°59' E 011°03'2120.6
2016-Aug-26 22:33N 55°41' E 010°48'2120.4
2016-Aug-26 21:33N 55°22' E 011°02'1919.5
2016-Aug-26 20:33N 55°03' E 011°02'1817.8
2016-Aug-26 19:34N 54°46' E 010°53'1919.0
2016-Aug-26 18:34N 54°34' E 011°19'1425.0
2016-Aug-26 18:00N 54°30' E 011°42'613.7 290 / 201015.010.8 2.022.119.019.0
2016-Aug-26 17:34N 54°26' E 011°50'1616.4
2016-Aug-26 16:34N 54°34' E 012°15'2419.1
2016-Aug-26 15:20N 54°48' E 012°47'1520.1
2016-Aug-26 14:34N 54°53' E 013°12'2020.4
2016-Aug-26 13:34N 55°01' E 013°45'2019.6
2016-Aug-26 12:34N 55°11' E 014°14'1919.3
2016-Aug-26 11:33N 55°26' E 014°36'2019.7
2016-Aug-26 10:34N 55°36' E 015°06'2020.2
2016-Aug-26 09:34N 55°45' E 015°38'2120.5
2016-Aug-26 08:33N 55°56' E 016°09'4320.1
2016-Aug-26 06:26N 56°27' E 017°01'10120.6
2016-Aug-26 01:32N 58°01' E 018°10'2020.7
2016-Aug-26 00:33N 58°18' E 018°31'4720.4
2016-Aug-25 22:14N 58°58' E 019°19'44 8.4
2016-Aug-25 17:00N 59°36' E 018°36'1313.5 200 / 31018.010.8 19.119.016.0
2016-Aug-25 16:00N 59°24' E 018°24'3 5.8 200 / 111018.010.8 20.715.316.0
2016-Aug-25 15:32N 59°21' E 018°25'9 9.4
2016-Aug-25 14:31N 59°19' E 018°07'1 0.5
2016-Aug-25 13:04N 59°19' E 018°06'0 0.0
2016-Aug-25 09:10N 59°19' E 018°06'0 0.0
2016-Aug-25 08:28N 59°19' E 018°06'0 0.0
2016-Aug-25 07:04N 59°19' E 018°06'0 0.0
2016-Aug-25 06:16N 59°19' E 018°06'11 6.6
2016-Aug-25 04:33N 59°24' E 018°27'8 8.5
2016-Aug-25 03:34N 59°32' E 018°32'1211.2
2016-Aug-25 02:28N 59°38' E 018°53'2714.2
2016-Aug-25 00:32N 59°48' E 019°43'1514.7
2016-Aug-24 23:29N 59°38' E 020°06'1516.4
2016-Aug-24 22:33N 59°36' E 020°36'916.1
2016-Aug-24 22:00N 59°36' E 020°54'1019.2 230 / 181021.010.8 0.516.3 16.0
2016-Aug-24 21:27N 59°30' E 021°10'1415.8
2016-Aug-24 20:33N 59°27' E 021°37'1616.3
2016-Aug-24 19:33N 59°28' E 022°09'1616.1
2016-Aug-24 18:33N 59°32' E 022°40'1616.4
2016-Aug-24 17:33N 59°36' E 023°11'1616.4
2016-Aug-24 16:33N 59°41' E 023°42'1716.8
2016-Aug-24 15:33N 59°46' E 024°15'35 2.5
2016-Aug-24 01:34N 59°56' E 025°21'1717.3
2016-Aug-24 00:34N 59°57' E 025°55'1919.3
2016-Aug-23 23:34N 60°01' E 026°33'1818.5
2016-Aug-23 22:34N 60°01' E 027°10'1918.9
2016-Aug-23 21:33N 60°11' E 027°42'1717.0
2016-Aug-23 20:33N 60°08' E 028°16'1616.3
2016-Aug-23 19:33N 60°03' E 028°47'1717.1
2016-Aug-23 18:33N 60°02' E 029°21'1111.2
2016-Aug-23 17:33N 59°59' E 029°43'1110.4
2016-Aug-23 16:33N 59°56' E 030°03'4 4.3
2016-Aug-23 15:33N 59°57' E 030°11'0 0.0
2016-Aug-23 14:30N 59°57' E 030°11'0 0.0
2016-Aug-23 13:33N 59°57' E 030°11'0 0.0
2016-Aug-23 12:33N 59°57' E 030°11'0 0.0
2016-Aug-23 11:33N 59°57' E 030°11'0 0.0
2016-Aug-23 10:33N 59°57' E 030°11'0 0.0
2016-Aug-23 09:33N 59°57' E 030°11'0 0.0
2016-Aug-23 08:33N 59°57' E 030°11'0 0.0
2016-Aug-23 07:33N 59°57' E 030°11'0 0.0
2016-Aug-23 06:33N 59°57' E 030°11'0 0.0
2016-Aug-23 05:33N 59°57' E 030°11'3 4.9
2016-Aug-23 05:00N 59°54' E 030°12'3 6.2 320 / 111018.010.8 17.217.018.0
2016-Aug-23 04:33N 59°57' E 030°11'3 4.9
2016-Aug-23 04:00N 59°54' E 030°12'3 6.2 320 / 111018.010.8 17.717.518.0
2016-Aug-23 03:33N 59°57' E 030°11'3 4.9
2016-Aug-23 03:00N 59°54' E 030°12'3 6.2 290 / 111018.010.8 18.218.018.0
2016-Aug-23 02:33N 59°57' E 030°11'3 4.9
2016-Aug-23 02:00N 59°54' E 030°12'3 6.2 290 / 111019.010.8 18.618.518.0
2016-Aug-23 01:33N 59°57' E 030°11'3 4.9
2016-Aug-23 01:00N 59°54' E 030°12'3 6.2 280 / 71019.010.8 19.019.018.0
2016-Aug-23 00:33N 59°57' E 030°11'0 0.0
2016-Aug-22 23:33N 59°57' E 030°11'0 0.0
2016-Aug-22 22:33N 59°57' E 030°11'0 0.0
2016-Aug-22 21:33N 59°57' E 030°11'0 0.0
2016-Aug-22 20:33N 59°57' E 030°11'0 0.0
2016-Aug-22 19:33N 59°57' E 030°11'0 0.0
2016-Aug-22 18:33N 59°57' E 030°11'0 0.0
2016-Aug-22 17:33N 59°57' E 030°11'0 0.0
2016-Aug-22 16:33N 59°57' E 030°11'0 0.0
2016-Aug-22 15:33N 59°57' E 030°11'0 0.0
2016-Aug-22 14:33N 59°57' E 030°11'0 0.0
2016-Aug-22 13:33N 59°57' E 030°11'0 0.0
2016-Aug-22 12:33N 59°57' E 030°11'0 0.0
2016-Aug-22 11:33N 59°57' E 030°11'0 0.0
2016-Aug-22 10:33N 59°57' E 030°11'0 0.0
2016-Aug-22 09:33N 59°57' E 030°11'0 0.0
2016-Aug-22 08:33N 59°57' E 030°11'0 0.0
2016-Aug-22 07:33N 59°57' E 030°11'0 0.0
2016-Aug-22 06:33N 59°57' E 030°11'0 0.0
2016-Aug-22 05:33N 59°57' E 030°11'3 4.9
2016-Aug-22 05:00N 59°54' E 030°12'3 6.2 140 / 61020.010.8 20.711.717.0
2016-Aug-22 04:33N 59°57' E 030°11'7 7.4
2016-Aug-22 03:33N 59°56' E 029°57'1010.2
2016-Aug-22 02:33N 60°00' E 029°38'1111.5
2016-Aug-22 01:33N 60°02' E 029°15'1313.5
2016-Aug-22 00:33N 60°02' E 028°48'1413.5
2016-Aug-21 23:33N 60°04' E 028°21'1413.7
2016-Aug-21 22:33N 60°10' E 027°56'1313.0
2016-Aug-21 21:33N 60°06' E 027°31'1413.8
2016-Aug-21 20:33N 59°59' E 027°08'1616.1
2016-Aug-21 19:33N 59°59' E 026°35'1414.1
2016-Aug-21 18:33N 59°55' E 026°08'1514.4
2016-Aug-21 17:29N 59°50' E 025°39'1414.6
2016-Aug-21 16:33N 59°46' E 025°13'1414.7
2016-Aug-21 15:33N 59°41' E 024°46'1313.1
2016-Aug-21 14:33N 59°28' E 024°46'0 0.5
2016-Aug-21 13:32N 59°27' E 024°46'3 5.9
2016-Aug-21 13:00N 59°30' E 024°48'3 6.8 140 / 151015.010.8 26.713.018.0
2016-Aug-21 12:32N 59°27' E 024°46'0 0.0
2016-Aug-21 11:29N 59°27' E 024°46'0 0.0
2016-Aug-21 10:32N 59°27' E 024°46'0 0.1
2016-Aug-21 09:32N 59°27' E 024°46'0 0.0
2016-Aug-21 08:29N 59°27' E 024°46'0 0.2
2016-Aug-21 07:32N 59°27' E 024°46'0 0.2
2016-Aug-21 06:32N 59°27' E 024°46'0 0.1
2016-Aug-21 05:34N 59°27' E 024°46'6 6.4
2016-Aug-21 04:33N 59°30' E 024°35'1414.4
2016-Aug-21 03:33N 59°29' E 024°06'1616.4
2016-Aug-21 02:33N 59°26' E 023°35'1717.2
2016-Aug-21 01:33N 59°22' E 023°02'1717.1
2016-Aug-21 00:33N 59°18' E 022°29'15916.6
2016-Aug-20 15:00N 57°12' E 019°24'1228.2 130 / 121014.010.8 1.017.817.617.0
2016-Aug-20 14:33N 57°04' E 019°07'2217.3
2016-Aug-20 13:18N 56°50' E 018°36'1316.9
2016-Aug-20 12:33N 56°43' E 018°18'  
Track history (hours):
 
Tides and Currents Weather Stations Pressure Air Temp Water Temp Dewpoint Dewpoint Depression Visibility Wind Speed Wind Dir Waves Ship Positions

Norwegian Star

Operator: Norwegian Cruise Line

Last reported at 2016-Aug-30 12:28 UTC. Time now 2016-Aug-30 13:12 UTC.
Position N 59°27' E 024°46'.

Type: Passenger vessel. MMSI: 311082000.

Date/timePositionNaut miles runAvg speedWind from/ knotsBaromVisibWave heightAir tempDewpointWater temp
2016-Aug-30 12:28N 59°27' E 024°46'0 0.0
2016-Aug-30 11:28N 59°27' E 024°46'0 0.0
2016-Aug-30 10:28N 59°27' E 024°46'0 0.0
2016-Aug-30 09:22N 59°27' E 024°46'0 0.0
2016-Aug-30 08:22N 59°27' E 024°46'0 0.1
2016-Aug-30 07:28N 59°27' E 024°46'0 0.0
2016-Aug-30 06:28N 59°27' E 024°46'0 0.0
2016-Aug-30 05:29N 59°27' E 024°46'7 7.4
2016-Aug-30 04:33N 59°30' E 024°34'3215.6
2016-Aug-30 02:31N 59°25' E 023°32'34316.4
2016-Aug-29 05:34N 55°38' E 015°33'5 9.4
2016-Aug-29 05:00N 55°36' E 015°24'1329.6 250 / 221006.010.8 1.018.618.018.0
2016-Aug-29 04:33N 55°29' E 015°05'1817.9
2016-Aug-29 03:33N 55°22' E 014°36'1817.9
2016-Aug-29 02:34N 55°08' E 014°16'1717.2
2016-Aug-29 01:33N 54°59' E 013°51'1818.0
2016-Aug-29 00:34N 54°53' E 013°21'1817.7
2016-Aug-28 23:34N 54°47' E 012°52'1817.1
2016-Aug-28 22:32N 54°39' E 012°25'1616.0
2016-Aug-28 21:34N 54°26' E 012°11'1413.8
2016-Aug-28 20:33N 54°12' E 012°05'4 3.4
2016-Aug-28 19:28N 54°09' E 012°06'0 0.0
2016-Aug-28 18:28N 54°09' E 012°06'0 0.0
2016-Aug-28 17:28N 54°09' E 012°06'0 0.0
2016-Aug-28 16:28N 54°09' E 012°06'0 0.0
2016-Aug-28 15:31N 54°09' E 012°06'0 0.0
2016-Aug-28 14:28N 54°09' E 012°06'0 0.0
2016-Aug-28 13:31N 54°09' E 012°06'0 0.0
2016-Aug-28 12:31N 54°09' E 012°06'0 0.0
2016-Aug-28 11:31N 54°09' E 012°06'0 0.0
2016-Aug-28 10:31N 54°09' E 012°06'0 0.0
2016-Aug-28 09:31N 54°09' E 012°06'0 0.0
2016-Aug-28 08:31N 54°09' E 012°06'0 0.0
2016-Aug-28 07:10N 54°09' E 012°06'0 0.0
2016-Aug-28 06:28N 54°09' E 012°06'0 0.0
2016-Aug-28 05:31N 54°09' E 012°06'0 0.0
2016-Aug-28 04:33N 54°09' E 012°06'6 6.3
2016-Aug-28 03:33N 54°15' E 012°02'1515.5
2016-Aug-28 02:33N 54°24' E 011°41'1616.3
2016-Aug-28 01:34N 54°33' E 011°18'1615.8
2016-Aug-28 00:33N 54°41' E 010°54'1717.4
2016-Aug-27 23:34N 54°58' E 010°59'1918.5
2016-Aug-27 22:33N 55°16' E 011°04'1918.9
2016-Aug-27 21:33N 55°34' E 010°50'1818.1
2016-Aug-27 20:33N 55°52' E 010°51'1919.1
2016-Aug-27 19:33N 56°07' E 011°12'2019.6
2016-Aug-27 18:33N 56°07' E 011°47'2019.6
2016-Aug-27 17:34N 56°11' E 012°21'1616.4
2016-Aug-27 16:33N 55°60' E 012°41'1413.9
2016-Aug-27 15:33N 55°46' E 012°42'4 3.8
2016-Aug-27 14:32N 55°43' E 012°37'0 0.0
2016-Aug-27 13:32N 55°43' E 012°37'0 0.0
2016-Aug-27 12:32N 55°43' E 012°37'0 0.0
2016-Aug-27 11:32N 55°43' E 012°37'0 0.0
2016-Aug-27 10:32N 55°43' E 012°37'0 0.0
2016-Aug-27 09:32N 55°43' E 012°37'0 0.0
2016-Aug-27 08:32N 55°43' E 012°37'0 0.0
2016-Aug-27 07:32N 55°43' E 012°37'0 0.0
2016-Aug-27 06:32N 55°43' E 012°37'0 0.0
2016-Aug-27 04:32N 55°43' E 012°37'6 5.8
2016-Aug-27 03:34N 55°48' E 012°43'1716.6
2016-Aug-27 02:34N 56°04' E 012°38'1918.9
2016-Aug-27 01:34N 56°11' E 012°06'2219.4
2016-Aug-27 00:26N 56°07' E 011°28'1617.9
2016-Aug-26 23:33N 55°59' E 011°03'2120.6
2016-Aug-26 22:33N 55°41' E 010°48'2120.4
2016-Aug-26 21:33N 55°22' E 011°02'1919.5
2016-Aug-26 20:33N 55°03' E 011°02'1817.8
2016-Aug-26 19:34N 54°46' E 010°53'1919.0
2016-Aug-26 18:34N 54°34' E 011°19'1425.0
2016-Aug-26 18:00N 54°30' E 011°42'613.7 290 / 201015.010.8 2.022.119.019.0
2016-Aug-26 17:34N 54°26' E 011°50'1616.4
2016-Aug-26 16:34N 54°34' E 012°15'2419.1
2016-Aug-26 15:20N 54°48' E 012°47'1520.1
2016-Aug-26 14:34N 54°53' E 013°12'2020.4
2016-Aug-26 13:34N 55°01' E 013°45'2019.6
2016-Aug-26 12:34N 55°11' E 014°14'1919.3
2016-Aug-26 11:33N 55°26' E 014°36'2019.7
2016-Aug-26 10:34N 55°36' E 015°06'2020.2
2016-Aug-26 09:34N 55°45' E 015°38'2120.5
2016-Aug-26 08:33N 55°56' E 016°09'4320.1
2016-Aug-26 06:26N 56°27' E 017°01'10120.6
2016-Aug-26 01:32N 58°01' E 018°10'2020.7
2016-Aug-26 00:33N 58°18' E 018°31'4720.4
2016-Aug-25 22:14N 58°58' E 019°19'44 8.4
2016-Aug-25 17:00N 59°36' E 018°36'1313.5 200 / 31018.010.8 19.119.016.0
2016-Aug-25 16:00N 59°24' E 018°24'3 5.8 200 / 111018.010.8 20.715.316.0
2016-Aug-25 15:32N 59°21' E 018°25'9 9.4
2016-Aug-25 14:31N 59°19' E 018°07'1 0.5
2016-Aug-25 13:04N 59°19' E 018°06'0 0.0
2016-Aug-25 09:10N 59°19' E 018°06'0 0.0
2016-Aug-25 08:28N 59°19' E 018°06'0 0.0
2016-Aug-25 07:04N 59°19' E 018°06'0 0.0
2016-Aug-25 06:16N 59°19' E 018°06'11 6.6
2016-Aug-25 04:33N 59°24' E 018°27'8 8.5
2016-Aug-25 03:34N 59°32' E 018°32'1211.2
2016-Aug-25 02:28N 59°38' E 018°53'2714.2
2016-Aug-25 00:32N 59°48' E 019°43'1514.7
2016-Aug-24 23:29N 59°38' E 020°06'1516.4
2016-Aug-24 22:33N 59°36' E 020°36'916.1
2016-Aug-24 22:00N 59°36' E 020°54'1019.2 230 / 181021.010.8 0.516.3 16.0
2016-Aug-24 21:27N 59°30' E 021°10'1415.8
2016-Aug-24 20:33N 59°27' E 021°37'1616.3
2016-Aug-24 19:33N 59°28' E 022°09'1616.1
2016-Aug-24 18:33N 59°32' E 022°40'1616.4
2016-Aug-24 17:33N 59°36' E 023°11'1616.4
2016-Aug-24 16:33N 59°41' E 023°42'1716.8
2016-Aug-24 15:33N 59°46' E 024°15'35 2.5
2016-Aug-24 01:34N 59°56' E 025°21'1717.3
2016-Aug-24 00:34N 59°57' E 025°55'1919.3
2016-Aug-23 23:34N 60°01' E 026°33'1818.5
2016-Aug-23 22:34N 60°01' E 027°10'1918.9
2016-Aug-23 21:33N 60°11' E 027°42'1717.0
2016-Aug-23 20:33N 60°08' E 028°16'1616.3
2016-Aug-23 19:33N 60°03' E 028°47'1717.1
2016-Aug-23 18:33N 60°02' E 029°21'1111.2
2016-Aug-23 17:33N 59°59' E 029°43'1110.4
2016-Aug-23 16:33N 59°56' E 030°03'4 4.3
2016-Aug-23 15:33N 59°57' E 030°11'0 0.0
2016-Aug-23 14:30N 59°57' E 030°11'0 0.0
2016-Aug-23 13:33N 59°57' E 030°11'0 0.0
2016-Aug-23 12:33N 59°57' E 030°11'0 0.0
2016-Aug-23 11:33N 59°57' E 030°11'0 0.0
2016-Aug-23 10:33N 59°57' E 030°11'0 0.0
2016-Aug-23 09:33N 59°57' E 030°11'0 0.0
2016-Aug-23 08:33N 59°57' E 030°11'0 0.0
2016-Aug-23 07:33N 59°57' E 030°11'0 0.0
2016-Aug-23 06:33N 59°57' E 030°11'0 0.0
2016-Aug-23 05:33N 59°57' E 030°11'3 4.9
2016-Aug-23 05:00N 59°54' E 030°12'3 6.2 320 / 111018.010.8 17.217.018.0
2016-Aug-23 04:33N 59°57' E 030°11'3 4.9
2016-Aug-23 04:00N 59°54' E 030°12'3 6.2 320 / 111018.010.8 17.717.518.0
2016-Aug-23 03:33N 59°57' E 030°11'3 4.9
2016-Aug-23 03:00N 59°54' E 030°12'3 6.2 290 / 111018.010.8 18.218.018.0
2016-Aug-23 02:33N 59°57' E 030°11'3 4.9
2016-Aug-23 02:00N 59°54' E 030°12'3 6.2 290 / 111019.010.8 18.618.518.0
2016-Aug-23 01:33N 59°57' E 030°11'3 4.9
2016-Aug-23 01:00N 59°54' E 030°12'3 6.2 280 / 71019.010.8 19.019.018.0
2016-Aug-23 00:33N 59°57' E 030°11'0 0.0
2016-Aug-22 23:33N 59°57' E 030°11'0 0.0
2016-Aug-22 22:33N 59°57' E 030°11'0 0.0
2016-Aug-22 21:33N 59°57' E 030°11'0 0.0
2016-Aug-22 20:33N 59°57' E 030°11'0 0.0
2016-Aug-22 19:33N 59°57' E 030°11'0 0.0
2016-Aug-22 18:33N 59°57' E 030°11'0 0.0
2016-Aug-22 17:33N 59°57' E 030°11'0 0.0
2016-Aug-22 16:33N 59°57' E 030°11'0 0.0
2016-Aug-22 15:33N 59°57' E 030°11'0 0.0
2016-Aug-22 14:33N 59°57' E 030°11'0 0.0
2016-Aug-22 13:33N 59°57' E 030°11'0 0.0
2016-Aug-22 12:33N 59°57' E 030°11'0 0.0
2016-Aug-22 11:33N 59°57' E 030°11'0 0.0
2016-Aug-22 10:33N 59°57' E 030°11'0 0.0
2016-Aug-22 09:33N 59°57' E 030°11'0 0.0
2016-Aug-22 08:33N 59°57' E 030°11'0 0.0
2016-Aug-22 07:33N 59°57' E 030°11'0 0.0
2016-Aug-22 06:33N 59°57' E 030°11'0 0.0
2016-Aug-22 05:33N 59°57' E 030°11'3 4.9
2016-Aug-22 05:00N 59°54' E 030°12'3 6.2 140 / 61020.010.8 20.711.717.0
2016-Aug-22 04:33N 59°57' E 030°11'7 7.4
2016-Aug-22 03:33N 59°56' E 029°57'1010.2
2016-Aug-22 02:33N 60°00' E 029°38'1111.5
2016-Aug-22 01:33N 60°02' E 029°15'1313.5
2016-Aug-22 00:33N 60°02' E 028°48'1413.5
2016-Aug-21 23:33N 60°04' E 028°21'1413.7
2016-Aug-21 22:33N 60°10' E 027°56'1313.0
2016-Aug-21 21:33N 60°06' E 027°31'1413.8
2016-Aug-21 20:33N 59°59' E 027°08'1616.1
2016-Aug-21 19:33N 59°59' E 026°35'1414.1
2016-Aug-21 18:33N 59°55' E 026°08'1514.4
2016-Aug-21 17:29N 59°50' E 025°39'1414.6
2016-Aug-21 16:33N 59°46' E 025°13'1414.7
2016-Aug-21 15:33N 59°41' E 024°46'1313.1
2016-Aug-21 14:33N 59°28' E 024°46'0 0.5
2016-Aug-21 13:32N 59°27' E 024°46'3 5.9
2016-Aug-21 13:00N 59°30' E 024°48'3 6.8 140 / 151015.010.8 26.713.018.0
2016-Aug-21 12:32N 59°27' E 024°46'0 0.0
2016-Aug-21 11:29N 59°27' E 024°46'0 0.0
2016-Aug-21 10:32N 59°27' E 024°46'0 0.1
2016-Aug-21 09:32N 59°27' E 024°46'0 0.0
2016-Aug-21 08:29N 59°27' E 024°46'0 0.2
2016-Aug-21 07:32N 59°27' E 024°46'0 0.2
2016-Aug-21 06:32N 59°27' E 024°46'0 0.1
2016-Aug-21 05:34N 59°27' E 024°46'6 6.4
2016-Aug-21 04:33N 59°30' E 024°35'1414.4
2016-Aug-21 03:33N 59°29' E 024°06'1616.4
2016-Aug-21 02:33N 59°26' E 023°35'1717.2
2016-Aug-21 01:33N 59°22' E 023°02'1717.1
2016-Aug-21 00:33N 59°18' E 022°29'15916.6
2016-Aug-20 15:00N 57°12' E 019°24'1228.2 130 / 121014.010.8 1.017.817.617.0
2016-Aug-20 14:33N 57°04' E 019°07'2217.3
2016-Aug-20 13:18N 56°50' E 018°36'1316.9
2016-Aug-20 12:33N 56°43' E 018°18'  

Dump ship's entire track history